Avon, CO (81620)

12:06 AM MDT on September 02, 2015 (GMT -0600)
Beaver Creek | | Change Station
CLOSE
Current Station
Personal Weather Station
Location: Avon, CO
Elevation: 8156 ft
Nearby Weather Stations

Elev 8156 ft 39.61 °N, 106.52 °W | Updated 14 minutes ago

Overcast
Overcast
48.7 °F
Feels Like 49 °F
N
1.1
Wind Variable Wind from SW

Today
High -- | Low -- °F
--% Chance of Precip.
Yesterday
High -- | Low -- °F
Precip. -- in
6:35 AM 7:35 PM
Waning Gibbous, 83% visible
Pressure 30.33 in
Visibility 10.0 miles
Clouds Clear
Windchill 49 °F
Dew Point 47 °F
Humidity 95%
Rainfall in
Snow Depth Not available.
UV 0 out of 12
Pollen 9.90 out of 12
Air Quality Not available.
Flu Activity Not available.
METAR KEGE 020555Z AUTO 00000KT 10SM CLR 13/11 A3033 RMK AO1 60001 10260 20130 52034
Pressure 30.33 in
Visibility 10.0 miles
Clouds Clear
Windchill 49 °F
Dew Point 47 °F
Humidity 95%
Rainfall in
Snow Depth Not available.
UV 0 out of 12
Pollen 9.90 out of 12
Air Quality Not available.
Flu Activity Not available.
METAR KEGE 020555Z AUTO 00000KT 10SM CLR 13/11 A3033 RMK AO1 60001 10260 20130 52034

10-Day Weather Forecast

×

Almanac

Astronomy

Sep. 02, 2015 Rise Set
Actual Time
Civil Twilight
Nautical Twilight
Astronomical Twilight
Moon
Length of Visible Light
Length of Day
Tomorrow will be .
, % of the Moon is Illuminated

Today's Extremes

State Highs State Lows

Community

WunderPhotos

Upload Photos

1,851,709 photos uploaded!

WunderBlogs® & News

Nearby

Air Quality

  Air Quality AQ Index Pollutant
Not available.

Snow Depth

Station Depth Elevation

Earthquake Activity

City Distance Mag. Time & Date
Minimum magnitude displayed is 2.5.

Coastal Water Temperatures

Place Temperature

Stations

Nearby Weather Stations

Station Location Temp. Windchill Dew Point Humidity Wind Precip. Elev Updated Type